Seattle, Washington
Traffic Map
Current Weather Conditions
Seattle, Washington
Overcast Light Rain
Overcast
49°
Feels Like: 45°
Wind Chill: 45° Ceiling: 4200
Heat Index: 49° Visibility: 8mi
Dew Point: 43° Wind: 8mph
Humidity: 80% Direction: 150° (SSE)
Pressure: 30.06in Gusts: 0mph
Raw Report DataKBFI 131853Z 15007KT 8SM -RA BKN042 OVC075 09/06 A3006 RMK AO2 SLP179 P0003 T00940061
Traffic Incident Summary
Active as of:
Severity:
Category:
InformationThere was an issue retrieving the traffic information for this location. Please try a different location or try again shortly.
Advertisements